Time;durP1;ratioP1;P1;durP2;ratioP2;P2;SDS_P1;SDS_P2;PMS_P1;PMS_P2;Temp;Humidity;BMP_temperature;BMP_pressure;BME280_temperature;BME280_humidity;BME280_pressure;Samples;Min_cycle;Max_cycle;Signal;HPM_P1;HPM_P2
2021/08/26 00:07:47;;;;;;;;;;;;;;;21.78;34.73;99873.38;4379916;32;34295;-89
2021/08/26 00:10:26;;;;;;;;;;;;;;;21.62;34.91;99865.69;4393186;32;34566;-89
2021/08/26 00:13:14;;;;;;;;;;;;;;;21.57;35.04;99870.53;4382211;32;32579;-89
2021/08/26 00:15:50;;;;;;;;;;;;;;;21.81;34.57;99865.19;4382585;32;34164;-89
2021/08/26 00:18:23;;;;;;;;;;;;;;;21.42;35.42;99856.56;4379432;32;35543;-90
2021/08/26 00:20:54;;;;;;;;;;;;;;;20.97;36.40;99855.41;4379412;32;33135;-89
2021/08/26 00:23:24;;;;;;;;;;;;;;;21.20;35.90;99858.16;4380251;32;32464;-88
2021/08/26 00:26:03;;;;;;;;;;;;;;;21.55;35.12;99852.06;4380203;32;37199;-90
2021/08/26 00:28:31;;;;;;;;;;;;;;;20.94;35.96;99847.69;4392796;32;33733;-89
2021/08/26 00:31:06;;;;;;;;;;;;;;;20.34;37.27;99851.91;4380924;32;34601;-89
2021/08/26 00:33:38;;;;;;;;;;;;;;;20.63;36.81;99844.53;4380221;32;35001;-89
2021/08/26 00:36:11;;;;;;;;;;;;;;;20.43;37.25;99845.12;4381031;32;33948;-89
2021/08/26 00:38:40;;;;;;;;;;;;;;;20.47;37.33;99844.78;4380564;32;33883;-90
2021/08/26 00:41:09;;;;;;;;;;;;;;;20.10;38.04;99841.22;4380222;32;34325;-90
2021/08/26 00:43:39;;;;;;;;;;;;;;;19.87;38.72;99835.72;4379975;32;32712;-90
2021/08/26 00:46:15;;;;;;;;;;;;;;;19.99;38.64;99836.69;4392811;32;35041;-90
2021/08/26 00:48:47;;;;;;;;;;;;;;;20.03;38.74;99838.16;4393498;32;34359;-89
2021/08/26 00:51:18;;;;;;;;;;;;;;;19.96;38.85;99836.91;4379257;32;34377;-88
2021/08/26 00:53:48;;;;;;;;;;;;;;;19.76;39.12;99832.97;4379326;32;32324;-89
2021/08/26 00:56:16;;;;;;;;;;;;;;;19.76;39.16;99831.16;4379027;32;33735;-90
2021/08/26 00:58:47;;;;;;;;;;;;;;;20.47;37.49;99836.00;4367368;32;33829;-90
2021/08/26 01:01:15;;;;;;;;;;;;;;;19.63;39.05;99831.13;4379438;32;33711;-90
2021/08/26 01:04:04;;;;;;;;;;;;;;;18.81;41.10;99830.28;4391844;32;32961;-90
2021/08/26 01:06:43;;;;;;;;;;;;;;;18.88;40.86;99831.63;4391785;32;34190;-90
2021/08/26 01:09:13;;;;;;;;;;;;;;;19.68;38.89;99828.19;4378835;32;35113;-90
2021/08/26 01:11:45;;;;;;;;;;;;;;;19.15;40.14;99826.34;4380083;32;35400;-89
2021/08/26 01:14:13;;;;;;;;;;;;;;;19.55;39.29;99827.31;4392155;32;34455;-89
2021/08/26 01:16:46;;;;;;;;;;;;;;;19.81;38.76;99828.22;4380317;32;36387;-89
2021/08/26 01:19:21;;;;;;;;;;;;;;;19.18;40.00;99822.66;4392181;32;36164;-90
2021/08/26 01:21:52;;;;;;;;;;;;;;;19.26;40.29;99825.66;4379496;32;34484;-90
2021/08/26 01:24:28;;;;;;;;;;;;;;;18.76;41.33;99824.47;4391474;32;32479;-89
2021/08/26 01:26:56;;;;;;;;;;;;;;;18.76;41.57;99825.31;4391557;32;33413;-90
2021/08/26 01:29:28;;;;;;;;;;;;;;;19.09;40.87;99831.19;4378324;32;34522;-88
2021/08/26 01:32:00;;;;;;;;;;;;;;;19.02;41.03;99826.28;4391777;32;35210;-90
2021/08/26 01:34:30;;;;;;;;;;;;;;;18.90;41.31;99824.47;4379623;32;32940;-90
2021/08/26 01:37:00;;;;;;;;;;;;;;;18.55;42.18;99824.88;4379423;32;35172;-89
2021/08/26 01:39:30;;;;;;;;;;;;;;;18.45;42.45;99821.97;4380094;32;33953;-90
2021/08/26 01:42:02;;;;;;;;;;;;;;;18.26;42.91;99817.00;4367575;32;33364;-89
2021/08/26 01:44:40;;;;;;;;;;;;;;;18.33;42.72;99823.59;4380145;32;32936;-89
2021/08/26 01:47:15;;;;;;;;;;;;;;;18.18;43.12;99814.00;4378781;32;34264;-89
2021/08/26 01:49:46;;;;;;;;;;;;;;;18.13;43.14;99818.69;4391348;32;35228;-89
2021/08/26 01:52:15;;;;;;;;;;;;;;;17.82;43.85;99815.25;4379072;32;35581;-89
2021/08/26 01:54:52;;;;;;;;;;;;;;;18.15;43.05;99815.03;4378923;32;32733;-89
2021/08/26 01:57:24;;;;;;;;;;;;;;;18.41;42.56;99806.44;4378886;32;33931;-90
2021/08/26 01:59:53;;;;;;;;;;;;;;;18.10;43.34;99811.81;4390243;32;34673;-89
2021/08/26 02:02:21;;;;;;;;;;;;;;;18.92;41.37;99809.38;4377941;32;34004;-89
2021/08/26 02:04:51;;;;;;;;;;;;;;;19.53;39.90;99811.53;4377946;32;34545;-89
2021/08/26 02:07:21;;;;;;;;;;;;;;;19.42;40.06;99814.91;4365781;32;36807;-89
2021/08/26 02:09:57;;;;;;;;;;;;;;;19.26;40.51;99808.97;4378954;32;35908;-91
2021/08/26 02:12:27;;;;;;;;;;;;;;;19.36;40.21;99804.75;4391256;32;34794;-89
2021/08/26 02:15:00;;;;;;;;;;;;;;;19.81;39.22;99804.41;4390639;32;33326;-90
2021/08/26 02:17:31;;;;;;;;;;;;;;;19.72;39.30;99805.00;4378451;32;34749;-89
2021/08/26 02:20:04;;;;;;;;;;;;;;;19.88;38.94;99805.69;4380720;32;35005;-89
2021/08/26 02:22:35;;;;;;;;;;;;;;;19.39;39.97;99806.34;4380965;32;34915;-89
2021/08/26 02:25:18;;;;;;;;;;;;;;;19.97;38.69;99810.34;4392849;32;33480;-89
2021/08/26 02:27:52;;;;;;;;;;;;;;;20.24;38.03;99801.44;4380150;32;34504;-90
2021/08/26 02:30:24;;;;;;;;;;;;;;;19.58;39.45;99806.78;4377845;32;35833;-90
2021/08/26 02:32:58;;;;;;;;;;;;;;;19.75;39.23;99805.66;4378559;32;36560;-91
2021/08/26 02:35:29;;;;;;;;;;;;;;;19.07;40.88;99802.25;4391394;32;33758;-89
2021/08/26 02:38:00;;;;;;;;;;;;;;;20.01;38.99;99795.13;4391552;32;34944;-90
2021/08/26 02:40:36;;;;;;;;;;;;;;;19.35;40.34;99798.62;4378996;32;35298;-91
2021/08/26 02:43:15;;;;;;;;;;;;;;;19.81;39.38;99805.28;4392865;32;34563;-90
2021/08/26 02:45:53;;;;;;;;;;;;;;;19.45;40.25;99804.16;4378607;32;32538;-90
2021/08/26 02:48:29;;;;;;;;;;;;;;;19.11;41.07;99798.44;4380340;32;34450;-90
2021/08/26 02:51:00;;;;;;;;;;;;;;;19.21;40.86;99800.50;4392906;32;34657;-90
2021/08/26 02:53:30;;;;;;;;;;;;;;;19.52;40.12;99796.66;4392590;32;33690;-91
2021/08/26 02:56:06;;;;;;;;;;;;;;;19.26;40.61;99804.50;4367416;32;34466;-89
2021/08/26 02:58:50;;;;;;;;;;;;;;;19.62;40.02;99799.50;4369019;32;33515;-88
2021/08/26 03:01:25;;;;;;;;;;;;;;;19.98;38.97;99804.13;4380131;32;34763;-89
2021/08/26 03:03:56;;;;;;;;;;;;;;;19.97;38.95;99807.72;4380272;32;34527;-90
2021/08/26 03:06:27;;;;;;;;;;;;;;;19.39;40.17;99806.34;4391490;32;35608;-89
2021/08/26 03:08:55;;;;;;;;;;;;;;;19.35;40.27;99805.72;4391921;32;34561;-90
2021/08/26 03:11:32;;;;;;;;;;;;;;;19.65;39.73;99807.22;4379044;32;34792;-89
2021/08/26 03:14:03;;;;;;;;;;;;;;;19.34;40.45;99802.22;4367410;32;33762;-90
2021/08/26 03:16:37;;;;;;;;;;;;;;;19.08;41.05;99798.66;4379575;32;34406;-90
2021/08/26 03:19:07;;;;;;;;;;;;;;;19.56;40.19;99799.91;4392688;32;33356;-90
2021/08/26 03:21:38;;;;;;;;;;;;;;;19.70;39.89;99799.84;4379517;32;34685;-90
2021/08/26 03:24:08;;;;;;;;;;;;;;;19.66;40.06;99799.22;4368115;32;33828;-90
2021/08/26 03:26:42;;;;;;;;;;;;;;;20.43;38.46;99803.63;4381192;32;34532;-90
2021/08/26 03:29:17;;;;;;;;;;;;;;;20.10;39.16;99799.78;4380039;32;36914;-90
2021/08/26 03:31:47;;;;;;;;;;;;;;;19.71;40.12;99795.41;4379378;32;33983;-89
2021/08/26 03:34:17;;;;;;;;;;;;;;;20.13;39.14;99802.19;4378494;32;34353;-90
2021/08/26 03:36:51;;;;;;;;;;;;;;;20.49;38.50;99797.06;4378521;32;33897;-90
2021/08/26 03:39:24;;;;;;;;;;;;;;;20.34;38.60;99788.41;4391228;32;35099;-90
2021/08/26 03:41:59;;;;;;;;;;;;;;;20.22;38.90;99787.47;4378965;32;34218;-89
2021/08/26 03:44:29;;;;;;;;;;;;;;;19.61;40.20;99785.47;4378501;32;33897;-90
2021/08/26 03:47:03;;;;;;;;;;;;;;;20.25;38.98;99786.41;4378281;32;36850;-90
2021/08/26 03:49:34;;;;;;;;;;;;;;;19.63;40.23;99790.66;4390996;32;33510;-89
2021/08/26 03:52:04;;;;;;;;;;;;;;;19.73;39.84;99782.91;4378679;32;33407;-90
2021/08/26 03:54:46;;;;;;;;;;;;;;;19.59;40.18;99784.72;4378968;32;35102;-90
2021/08/26 03:57:20;;;;;;;;;;;;;;;19.50;40.53;99774.75;4369372;32;34280;-89
2021/08/26 04:00:09;;;;;;;;;;;;;;;18.69;42.42;99782.66;4393252;32;33250;-90
2021/08/26 04:02:42;;;;;;;;;;;;;;;19.20;41.38;99775.88;4379441;32;36185;-89
2021/08/26 04:05:16;;;;;;;;;;;;;;;19.55;40.50;99771.81;4381040;32;34561;-89
2021/08/26 04:07:49;;;;;;;;;;;;;;;18.32;43.45;99766.50;4379238;32;33980;-90
2021/08/26 04:10:22;;;;;;;;;;;;;;;18.68;42.60;99765.13;4379416;32;36772;-90
2021/08/26 04:12:57;;;;;;;;;;;;;;;19.43;40.94;99762.94;4392077;32;34601;-91
2021/08/26 04:15:33;;;;;;;;;;;;;;;20.11;38.60;99763.59;4391705;32;34850;-89
2021/08/26 04:18:04;;;;;;;;;;;;;;;20.08;38.30;99755.88;4379290;32;32859;-90
2021/08/26 04:20:45;;;;;;;;;;;;;;;20.25;38.18;99760.81;4381060;32;33558;-90
2021/08/26 04:23:25;;;;;;;;;;;;;;;19.99;39.38;99749.44;4379646;32;33449;-90
2021/08/26 04:26:11;;;;;;;;;;;;;;;20.01;39.69;99748.38;4380180;32;33071;-90
2021/08/26 04:28:45;;;;;;;;;;;;;;;19.97;39.68;99749.53;4379380;32;33706;-90
2021/08/26 04:31:16;;;;;;;;;;;;;;;19.84;40.07;99751.34;4391800;32;34050;-89
2021/08/26 04:33:49;;;;;;;;;;;;;;;19.66;40.60;99756.94;4391955;32;33273;-90
2021/08/26 04:36:29;;;;;;;;;;;;;;;19.69;40.57;99753.19;4379642;32;34519;-90
2021/08/26 04:39:17;;;;;;;;;;;;;;;19.61;40.93;99752.88;4382011;32;36854;-90
2021/08/26 04:42:28;;;;;;;;;;;;;;;19.30;41.69;99755.81;4374858;32;33356;-90
2021/08/26 04:45:06;;;;;;;;;;;;;;;19.79;40.79;99751.63;4390720;32;33292;-91
2021/08/26 04:47:40;;;;;;;;;;;;;;;19.56;41.35;99747.94;4389973;32;34819;-90
2021/08/26 04:50:29;;;;;;;;;;;;;;;20.08;40.16;99743.50;4381118;32;34309;-89
2021/08/26 04:53:16;;;;;;;;;;;;;;;20.40;39.60;99744.81;4378263;32;34910;-90
2021/08/26 04:55:58;;;;;;;;;;;;;;;19.73;41.07;99749.44;4390961;32;33872;-88
2021/08/26 04:58:48;;;;;;;;;;;;;;;20.33;39.80;99734.66;4358141;32;33485;-88
2021/08/26 05:02:11;;;;;;;;;;;;;;;20.36;40.00;99739.72;4391791;32;33770;-89
2021/08/26 05:05:12;;;;;;;;;;;;;;;20.22;40.37;99728.44;4388309;32;35147;-88
2021/08/26 05:08:23;;;;;;;;;;;;;;;20.61;39.49;99730.00;4381900;32;35068;-89
2021/08/26 05:11:21;;;;;;;;;;;;;;;20.56;39.69;99732.16;4377344;32;34546;-90
2021/08/26 05:15:01;;;;;;;;;;;;;;;20.78;39.39;99728.81;4392185;32;33049;-89
2021/08/26 05:18:42;;;;;;;;;;;;;;;;;;;;;
2021/08/26 05:22:16;;;;;;;;;;;;;;;21.19;38.52;99716.06;4335121;32;33793;-89
2021/08/26 05:26:13;;;;;;;;;;;;;;;20.03;40.96;99716.53;4358385;32;34333;-90
2021/08/26 05:29:27;;;;;;;;;;;;;;;20.91;39.19;99712.00;4325851;32;33692;-90
2021/08/26 05:32:07;;;;;;;;;;;;;;;21.16;38.55;99708.34;4350878;32;35461;-87
2021/08/26 05:34:47;;;;;;;;;;;;;;;21.84;37.39;99705.81;4338486;32;34954;-90
2021/08/26 05:37:32;;;;;;;;;;;;;;;21.57;38.02;99709.66;4337542;32;35077;-90
2021/08/26 05:40:34;;;;;;;;;;;;;;;20.84;39.69;99703.66;4297454;33;32731;-92
2021/08/26 05:43:13;;;;;;;;;;;;;;;21.59;38.45;99705.09;4314118;33;33848;-89
2021/08/26 05:45:43;;;;;;;;;;;;;;;21.54;38.63;99694.00;4314557;33;35569;-88
2021/08/26 05:48:23;;;;;;;;;;;;;;;22.23;37.35;99698.31;4310135;33;35402;-91
2021/08/26 05:51:03;;;;;;;;;;;;;;;22.27;37.16;99694.44;4329443;33;33328;-90
2021/08/26 05:54:31;;;;;;;;;;;;;;;22.55;36.56;99692.25;4327115;32;35289;-90
2021/08/26 05:57:26;;;;;;;;;;;;;;;22.51;36.66;99696.13;4347443;32;34797;-91
2021/08/26 06:00:12;;;;;;;;;;;;;;;22.86;36.30;99700.31;4350636;32;33085;-87
2021/08/26 06:03:05;;;;;;;;;;;;;;;22.92;36.07;99704.28;4342715;32;33062;-87
2021/08/26 06:07:14;;;;;;;;;;;;;;;23.11;35.45;99698.28;4316184;33;33962;-88
2021/08/26 06:10:17;;;;;;;;;;;;;;;23.57;34.79;99707.66;4302279;33;35304;-89
2021/08/26 06:16:58;;;;;;;;;;;;;;;23.98;33.93;99702.41;4346721;33;33270;-90
2021/08/26 06:27:40;;;;;;;;;;;;;;;22.38;36.84;99709.53;4149689;34;34911;-89
2021/08/26 06:34:57;;;;;;;;;;;;;;;22.80;36.18;99707.00;4146005;34;34824;-89
2021/08/26 06:49:40;;;;;;;;;;;;;;;;;;;;;
2021/08/26 07:21:40;;;;;;;;;;;;;;;;;;;;;
2021/08/26 07:42:24;;;;;;;;;;;;;;;26.70;29.49;99690.50;5311683;26;1018245;-90
2021/08/26 07:44:53;;;;;;;;;;;;;;;26.70;29.49;99690.50;5294986;26;32112;-94
2021/08/26 07:47:23;;;;;;;;;;;;;;;26.46;29.83;99696.47;5294534;26;33515;-94
2021/08/26 07:49:53;;;;;;;;;;;;;;;26.36;29.72;99691.16;5288200;27;34776;-91
2021/08/26 07:52:20;;;;;;;;;;;;;;;26.50;29.92;99693.31;5306075;27;34757;-89
2021/08/26 07:54:48;;;;;;;;;;;;;;;26.30;29.97;99689.94;5269021;27;32234;-89
2021/08/26 07:57:15;;;;;;;;;;;;;;;26.66;29.28;99684.62;5286611;27;33227;-90
2021/08/26 07:59:43;;;;;;;;;;;;;;;26.87;28.95;99691.53;5286872;27;33166;-90
2021/08/26 08:02:12;;;;;;;;;;;;;;;26.49;29.76;99680.13;5268636;27;34226;-90
2021/08/26 08:04:40;;;;;;;;;;;;;;;26.69;29.29;99680.81;5287188;27;33852;-90
2021/08/26 08:07:08;;;;;;;;;;;;;;;27.65;27.98;99674.66;5268982;27;33226;-89
2021/08/26 08:09:36;;;;;;;;;;;;;;;27.34;28.39;99683.16;5287171;27;33618;-89
2021/08/26 08:12:04;;;;;;;;;;;;;;;27.70;28.06;99679.53;5268835;27;33482;-90
2021/08/26 08:14:32;;;;;;;;;;;;;;;27.64;27.91;99680.19;5269724;27;33271;-90
2021/08/26 08:17:00;;;;;;;;;;;;;;;27.47;28.35;99676.59;5269408;27;34246;-89
2021/08/26 08:19:27;;;;;;;;;;;;;;;27.21;28.63;99673.87;5286589;27;34610;-89
2021/08/26 08:21:55;;;;;;;;;;;;;;;27.84;27.49;99672.72;5268406;27;34655;-90
2021/08/26 08:24:23;;;;;;;;;;;;;;;28.12;27.22;99664.50;5287731;27;33150;-92
2021/08/26 08:26:55;;;;;;;;;;;;;;;28.13;27.13;99661.69;5289595;27;34580;-91
2021/08/26 08:29:23;;;;;;;;;;;;;;;27.87;27.38;99668.91;5269811;27;33534;-89
2021/08/26 08:31:51;;;;;;;;;;;;;;;27.88;27.47;99674.13;5268530;27;32922;-89
2021/08/26 08:34:18;;;;;;;;;;;;;;;27.76;27.29;99668.22;5287075;27;32486;-89
2021/08/26 08:36:46;;;;;;;;;;;;;;;28.24;26.66;99668.56;5268831;27;32979;-89
2021/08/26 08:39:13;;;;;;;;;;;;;;;28.13;27.11;99671.53;5289874;27;34040;-88
2021/08/26 08:41:43;;;;;;;;;;;;;;;27.05;28.56;99671.94;5285918;27;32851;-89
2021/08/26 08:44:10;;;;;;;;;;;;;;;28.66;26.39;99659.59;5265302;27;33158;-88
2021/08/26 08:46:39;;;;;;;;;;;;;;;28.52;26.46;99657.56;5281574;27;34318;-88
2021/08/26 08:49:07;;;;;;;;;;;;;;;28.65;26.33;99657.94;5263164;27;34895;-89
2021/08/26 08:51:34;;;;;;;;;;;;;;;28.22;27.05;99659.00;5264427;27;33412;-89
2021/08/26 08:54:02;;;;;;;;;;;;;;;28.34;26.66;99655.00;5282865;27;33472;-91
2021/08/26 08:56:30;;;;;;;;;;;;;;;29.09;25.66;99654.06;5265863;27;33602;-94
2021/08/26 08:59:03;;;;;;;;;;;;;;;29.28;25.55;99644.81;5287034;27;33387;-94
2021/08/26 09:01:53;;;;;;;;;;;;;;;29.22;25.80;99645.47;5248244;27;33253;-88
2021/08/26 09:04:22;;;;;;;;;;;;;;;28.58;26.48;99643.47;5277865;27;32667;-90
2021/08/26 09:06:50;;;;;;;;;;;;;;;28.48;26.62;99643.66;5278273;27;34558;-89
2021/08/26 09:09:20;;;;;;;;;;;;;;;29.38;25.22;99633.06;5260165;27;34752;-88
2021/08/26 09:11:52;;;;;;;;;;;;;;;29.94;24.42;99630.31;5278849;27;34375;-87
2021/08/26 09:14:20;;;;;;;;;;;;;;;29.43;24.62;99636.06;5278090;27;32329;-88
2021/08/26 09:16:49;;;;;;;;;;;;;;;29.12;24.75;99628.75;5259799;27;33174;-88
2021/08/26 09:19:30;;;;;;;;;;;;;;;29.01;24.88;99629.06;5278093;27;34378;-88
2021/08/26 09:22:01;;;;;;;;;;;;;;;29.30;24.20;99636.59;5298087;27;34225;-89
2021/08/26 09:24:48;;;;;;;;;;;;;;;29.45;23.96;99632.19;5278914;27;32788;-90
2021/08/26 09:27:46;;;;;;;;;;;;;;;29.35;24.28;99628.88;5279238;27;33909;-88
2021/08/26 09:30:21;;;;;;;;;;;;;;;28.92;24.30;99626.41;5285389;27;33419;-93
2021/08/26 09:32:57;;;;;;;;;;;;;;;28.63;25.10;99635.78;5266574;27;33239;-93
2021/08/26 09:35:39;;;;;;;;;;;;;;;28.65;25.08;99636.50;5271146;27;32274;-94
2021/08/26 09:38:16;;;;;;;;;;;;;;;29.36;24.28;99635.91;5282856;27;33419;-95
2021/08/26 09:41:15;;;;;;;;;;;;;;;28.75;25.24;99638.16;5310204;27;20015;-92
2021/08/26 09:44:05;;;;;;;;;;;;;;;28.89;24.55;99632.12;5273632;27;33293;-93
2021/08/26 09:46:35;;;;;;;;;;;;;;;28.84;24.52;99637.16;5266799;27;32224;-92
2021/08/26 09:49:10;;;;;;;;;;;;;;;28.86;24.27;99634.31;5282279;26;33034;-94
2021/08/26 09:51:39;;;;;;;;;;;;;;;28.86;24.73;99636.97;5286896;26;33332;-93
2021/08/26 09:54:28;;;;;;;;;;;;;;;28.15;25.67;99630.19;5304236;26;32723;-90
2021/08/26 09:56:58;;;;;;;;;;;;;;;28.71;24.57;99632.28;5322458;26;33525;-88
2021/08/26 09:59:52;;;;;;;;;;;;;;;29.26;23.87;99628.03;5304241;26;34074;-90
2021/08/26 10:02:23;;;;;;;;;;;;;;;29.72;23.00;99629.25;5322645;26;34229;-88
2021/08/26 10:04:52;;;;;;;;;;;;;;;29.16;23.93;99620.16;5286561;26;33043;-89
2021/08/26 10:07:20;;;;;;;;;;;;;;;29.16;24.12;99614.81;5323303;26;32300;-90
2021/08/26 10:09:49;;;;;;;;;;;;;;;29.44;23.81;99625.16;5305013;26;34566;-89
2021/08/26 10:12:17;;;;;;;;;;;;;;;28.93;23.80;99616.50;5306474;26;33416;-88
2021/08/26 10:14:46;;;;;;;;;;;;;;;28.90;24.10;99620.37;5285377;26;34155;-89
2021/08/26 10:17:14;;;;;;;;;;;;;;;28.82;24.16;99623.91;5304690;26;33853;-90
2021/08/26 10:19:42;;;;;;;;;;;;;;;28.11;24.80;99614.63;5321976;26;34600;-90
2021/08/26 10:22:11;;;;;;;;;;;;;;;28.87;23.99;99622.56;5303749;26;33915;-90
2021/08/26 10:24:39;;;;;;;;;;;;;;;28.85;23.85;99612.00;5286514;26;32972;-90
2021/08/26 10:27:07;;;;;;;;;;;;;;;29.39;23.18;99608.72;5285648;26;32246;-89
2021/08/26 10:29:35;;;;;;;;;;;;;;;30.31;22.13;99602.75;5321890;26;33220;-91
2021/08/26 10:32:03;;;;;;;;;;;;;;;29.83;22.52;99610.88;5303365;26;33440;-90
2021/08/26 10:34:32;;;;;;;;;;;;;;;30.25;21.76;99608.81;5304503;26;33653;-91
2021/08/26 10:37:04;;;;;;;;;;;;;;;30.32;21.70;99599.00;5305221;26;32429;-94
2021/08/26 10:39:47;;;;;;;;;;;;;;;30.48;21.52;99598.09;5267215;27;34177;-89
2021/08/26 10:42:20;;;;;;;;;;;;;;;30.92;21.11;99593.00;5266606;27;33947;-88
2021/08/26 10:44:58;;;;;;;;;;;;;;;30.48;21.83;99602.63;5283844;27;34245;-89
2021/08/26 10:47:44;;;;;;;;;;;;;;;30.10;21.98;99599.84;5284934;27;33356;-87
2021/08/26 10:50:24;;;;;;;;;;;;;;;30.81;21.29;99603.16;5283916;27;34795;-89
2021/08/26 10:52:55;;;;;;;;;;;;;;;30.79;20.62;99610.59;5283691;27;33804;-88
2021/08/26 10:55:42;;;;;;;;;;;;;;;31.20;19.96;99603.16;5303964;27;34288;-89
2021/08/26 10:58:25;;;;;;;;;;;;;;;31.27;20.07;99602.25;5266917;27;32780;-87
2021/08/26 11:01:00;;;;;;;;;;;;;;;31.47;20.23;99597.13;5283643;27;33494;-87
2021/08/26 11:03:47;;;;;;;;;;;;;;;31.41;20.19;99602.41;5266726;27;33346;-90
2021/08/26 11:09:35;;;;;;;;;;;;;;;31.65;20.03;99585.12;5303843;27;33537;-91
2021/08/26 11:12:21;;;;;;;;;;;;;;;31.24;20.46;99597.22;5282603;27;34556;-88
2021/08/26 11:14:50;;;;;;;;;;;;;;;30.63;20.70;99584.69;5283340;27;33375;-87
2021/08/26 11:17:26;;;;;;;;;;;;;;;31.48;19.85;99589.87;5266583;27;37725;-87
2021/08/26 11:20:22;;;;;;;;;;;;;;;30.25;21.36;99581.94;5296211;27;32622;-88
2021/08/26 11:23:09;;;;;;;;;;;;;;;31.58;19.73;99590.41;5322021;27;33980;-88
2021/08/26 11:25:43;;;;;;;;;;;;;;;30.90;20.25;99589.63;5268567;27;35350;-88
2021/08/26 11:28:30;;;;;;;;;;;;;;;31.20;19.87;99595.91;5283850;27;34971;-88
2021/08/26 11:31:12;;;;;;;;;;;;;;;31.70;18.94;99585.41;5266791;27;32480;-88
2021/08/26 11:33:43;;;;;;;;;;;;;;;31.06;20.01;99586.81;5267137;27;33597;-88
2021/08/26 11:36:18;;;;;;;;;;;;;;;31.54;19.69;99583.75;5283402;27;34584;-88
2021/08/26 11:39:15;;;;;;;;;;;;;;;31.61;19.81;99586.53;5304935;27;33359;-87
2021/08/26 11:42:23;;;;;;;;;;;;;;;31.46;19.92;99586.53;5278965;27;32366;-88
2021/08/26 11:45:10;;;;;;;;;;;;;;;31.32;20.05;99593.59;5302731;27;34076;-88
2021/08/26 11:48:26;;;;;;;;;;;;;;;30.74;20.24;99591.50;5282178;27;34002;-88
2021/08/26 11:51:03;;;;;;;;;;;;;;;30.58;20.63;99594.31;5269853;27;34279;-88
2021/08/26 11:53:38;;;;;;;;;;;;;;;30.55;21.07;99589.31;5303103;27;33076;-88
2021/08/26 11:56:11;;;;;;;;;;;;;;;30.80;21.28;99579.16;5302663;27;34580;-89
2021/08/26 11:58:44;;;;;;;;;;;;;;;30.34;22.09;99581.87;5266919;27;33686;-88
2021/08/26 12:01:20;;;;;;;;;;;;;;;30.95;21.37;99582.72;5303138;27;35944;-88
2021/08/26 12:04:00;;;;;;;;;;;;;;;30.92;21.14;99582.25;5306539;27;32839;-89
2021/08/26 12:06:40;;;;;;;;;;;;;;;31.25;20.52;99582.75;5302797;27;33136;-91
2021/08/26 12:09:25;;;;;;;;;;;;;;;31.38;20.78;99586.62;5302914;27;35669;-89
2021/08/26 12:12:22;;;;;;;;;;;;;;;31.01;21.22;99588.34;5274521;27;33609;-90
2021/08/26 12:14:57;;;;;;;;;;;;;;;31.46;20.76;99584.66;5285126;27;33750;-89
2021/08/26 12:17:33;;;;;;;;;;;;;;;31.86;20.24;99578.97;5268366;27;35013;-87
2021/08/26 12:20:10;;;;;;;;;;;;;;;30.93;21.25;99583.91;5287906;27;35454;-91
2021/08/26 12:22:48;;;;;;;;;;;;;;;31.63;20.57;99582.63;5320700;27;34544;-89
2021/08/26 12:25:39;;;;;;;;;;;;;;;31.60;20.52;99584.84;5302505;27;34039;-88
2021/08/26 12:28:18;;;;;;;;;;;;;;;30.86;21.46;99578.44;5272060;27;33499;-89
2021/08/26 12:31:00;;;;;;;;;;;;;;;31.37;21.05;99584.97;5303760;27;33612;-88
2021/08/26 12:33:30;;;;;;;;;;;;;;;31.31;21.04;99584.69;5304036;27;33249;-89
2021/08/26 12:36:14;;;;;;;;;;;;;;;31.57;20.74;99579.84;5269264;27;32662;-89
2021/08/26 12:39:14;;;;;;;;;;;;;;;31.41;20.96;99586.25;5273977;27;34637;-91
2021/08/26 12:42:02;;;;;;;;;;;;;;;31.27;21.43;99585.25;5268934;27;34631;-91
2021/08/26 12:44:30;;;;;;;;;;;;;;;31.40;21.30;99584.59;5303351;27;36168;-87
2021/08/26 12:47:02;;;;;;;;;;;;;;;30.53;22.06;99584.13;5321428;27;32979;-88
2021/08/26 12:49:43;;;;;;;;;;;;;;;30.97;21.72;99585.22;5303624;27;34492;-89
2021/08/26 12:52:16;;;;;;;;;;;;;;;30.71;22.02;99591.00;5283972;27;34528;-90
2021/08/26 12:54:56;;;;;;;;;;;;;;;31.29;21.37;99577.81;5267909;27;34277;-90
2021/08/26 12:57:32;;;;;;;;;;;;;;;30.76;21.94;99576.00;5284231;27;32775;-88
2021/08/26 13:00:09;;;;;;;;;;;;;;;30.90;22.16;99576.19;5323006;27;34689;-89
2021/08/26 13:02:52;;;;;;;;;;;;;;;30.51;22.66;99582.63;5303297;27;33783;-89
2021/08/26 13:05:23;;;;;;;;;;;;;;;30.74;22.27;99586.12;5288866;27;34865;-88
2021/08/26 13:08:01;;;;;;;;;;;;;;;30.50;22.44;99579.09;5305857;27;32981;-89
2021/08/26 13:10:36;;;;;;;;;;;;;;;30.78;22.27;99579.34;5270531;27;33467;-88
2021/08/26 13:13:14;;;;;;;;;;;;;;;30.67;22.48;99569.03;5305331;27;34057;-89
2021/08/26 13:15:43;;;;;;;;;;;;;;;30.59;22.76;99578.00;5268432;27;33318;-89
2021/08/26 13:18:19;;;;;;;;;;;;;;;30.68;22.46;99573.38;5270018;27;32915;-89
2021/08/26 13:20:49;;;;;;;;;;;;;;;30.54;22.67;99568.81;5269145;27;34591;-89
2021/08/26 13:23:23;;;;;;;;;;;;;;;30.85;22.30;99571.38;5253216;27;33761;-89
2021/08/26 13:25:51;;;;;;;;;;;;;;;30.94;22.35;99570.28;5324105;27;34031;-90
2021/08/26 13:28:22;;;;;;;;;;;;;;;30.91;22.11;99562.59;5304143;27;34013;-88
2021/08/26 13:30:54;;;;;;;;;;;;;;;30.71;22.19;99553.38;5304369;27;36177;-90
2021/08/26 13:33:26;;;;;;;;;;;;;;;30.76;22.10;99559.84;5268366;27;35213;-90
2021/08/26 13:36:14;;;;;;;;;;;;;;;30.88;22.05;99565.63;5307070;27;34953;-92
2021/08/26 13:38:47;;;;;;;;;;;;;;;30.75;22.36;99571.63;5268497;27;34970;-91
2021/08/26 13:41:16;;;;;;;;;;;;;;;30.51;22.52;99572.69;5303547;27;33592;-88
2021/08/26 13:43:57;;;;;;;;;;;;;;;30.59;22.47;99572.63;5292009;27;35277;-88
2021/08/26 13:46:29;;;;;;;;;;;;;;;30.75;22.46;99563.56;5303420;27;34279;-89
2021/08/26 13:49:06;;;;;;;;;;;;;;;30.89;22.32;99564.59;5269818;27;32663;-90
2021/08/26 13:51:48;;;;;;;;;;;;;;;31.10;22.02;99565.75;5306057;27;34546;-88
2021/08/26 13:54:24;;;;;;;;;;;;;;;30.40;22.76;99557.81;5270272;27;33910;-88
2021/08/26 13:57:05;;;;;;;;;;;;;;;30.45;22.94;99547.38;5291899;27;34792;-88
2021/08/26 13:59:41;;;;;;;;;;;;;;;30.16;23.39;99548.09;5269716;27;33822;-89
2021/08/26 14:02:14;;;;;;;;;;;;;;;30.85;22.56;99546.31;5268055;27;35157;-89
2021/08/26 14:04:53;;;;;;;;;;;;;;;30.85;22.71;99547.19;5289063;27;34874;-87
2021/08/26 14:07:34;;;;;;;;;;;;;;;30.32;23.44;99549.81;5289945;27;34299;-90
2021/08/26 14:10:19;;;;;;;;;;;;;;;30.27;23.41;99541.47;5272598;27;33587;-89
2021/08/26 14:13:07;;;;;;;;;;;;;;;30.70;22.84;99536.41;5304676;27;35076;-89
2021/08/26 14:16:07;;;;;;;;;;;;;;;30.74;22.96;99536.84;5304733;27;35994;-90
2021/08/26 14:18:54;;;;;;;;;;;;;;;30.76;23.11;99543.72;5275888;27;33429;-90
2021/08/26 14:21:44;;;;;;;;;;;;;;;30.83;22.64;99541.13;5308374;27;34376;-89
2021/08/26 14:24:24;;;;;;;;;;;;;;;30.72;22.79;99541.59;5301719;27;33224;-89
2021/08/26 14:27:14;;;;;;;;;;;;;;;30.73;22.92;99548.66;5305943;27;33229;-90
2021/08/26 14:30:00;;;;;;;;;;;;;;;30.75;22.80;99547.44;5273863;27;33421;-89
2021/08/26 14:33:42;;;;;;;;;;;;;;;;;;;;;
2021/08/26 14:36:52;;;;;;;;;;;;;;;30.27;24.07;99562.97;5294518;27;33395;-90
2021/08/26 14:39:26;;;;;;;;;;;;;;;29.76;28.70;99576.88;5269160;27;33714;-89
2021/08/26 14:42:01;;;;;;;;;;;;;;;29.94;28.80;99582.00;5267952;27;34187;-90
2021/08/26 14:44:29;;;;;;;;;;;;;;;29.78;28.40;99577.53;5267087;27;32663;-89
2021/08/26 14:47:02;;;;;;;;;;;;;;;29.47;30.82;99584.53;5266079;27;33525;-89
2021/08/26 14:49:41;;;;;;;;;;;;;;;29.63;28.53;99578.25;5286243;27;35227;-90
2021/08/26 14:52:11;;;;;;;;;;;;;;;29.28;30.68;99572.38;5267247;27;34495;-89
2021/08/26 14:54:40;;;;;;;;;;;;;;;29.54;29.95;99560.53;5264763;27;35009;-89
2021/08/26 14:57:10;;;;;;;;;;;;;;;29.34;29.84;99556.59;5264806;27;33819;-89
2021/08/26 14:59:39;;;;;;;;;;;;;;;29.37;31.30;99556.25;5299345;27;35648;-87
2021/08/26 15:02:09;;;;;;;;;;;;;;;29.20;31.67;99566.16;5299885;27;33418;-88
2021/08/26 15:04:42;;;;;;;;;;;;;;;29.07;32.29;99562.19;5264880;27;33757;-87
2021/08/26 15:07:13;;;;;;;;;;;;;;;28.81;31.63;99554.38;5265545;27;35447;-88
2021/08/26 15:09:47;;;;;;;;;;;;;;;28.56;32.67;99546.34;5266992;27;33597;-88
2021/08/26 15:12:18;;;;;;;;;;;;;;;28.63;32.90;99541.16;5318069;27;33487;-88